sensor_id;sensor_type;location;lat;lon;timestamp;pressure;altitude;pressure_sealevel;temperature
79756;BMP280;69239;50.678;12.280;2024-02-04T00:01:17;98058.66;;;8.54
79756;BMP280;69239;50.678;12.280;2024-02-04T00:03:43;98051.06;;;8.52
79756;BMP280;69239;50.678;12.280;2024-02-04T00:06:08;98042.13;;;8.53
79756;BMP280;69239;50.678;12.280;2024-02-04T00:08:33;98034.50;;;8.52
79756;BMP280;69239;50.678;12.280;2024-02-04T00:10:59;98027.50;;;8.47
79756;BMP280;69239;50.678;12.280;2024-02-04T00:13:24;98047.91;;;8.50
79756;BMP280;69239;50.678;12.280;2024-02-04T00:15:49;98049.25;;;8.48
79756;BMP280;69239;50.678;12.280;2024-02-04T00:18:15;98056.81;;;8.54
79756;BMP280;69239;50.678;12.280;2024-02-04T00:20:40;98048.94;;;8.54
79756;BMP280;69239;50.678;12.280;2024-02-04T00:23:06;98036.56;;;8.55
79756;BMP280;69239;50.678;12.280;2024-02-04T00:25:31;98020.69;;;8.46
79756;BMP280;69239;50.678;12.280;2024-02-04T00:27:56;98023.81;;;8.48
79756;BMP280;69239;50.678;12.280;2024-02-04T00:30:22;98031.69;;;8.48
79756;BMP280;69239;50.678;12.280;2024-02-04T00:32:47;98037.41;;;8.50
79756;BMP280;69239;50.678;12.280;2024-02-04T00:35:12;98045.06;;;8.47
79756;BMP280;69239;50.678;12.280;2024-02-04T00:37:38;98050.81;;;8.49
79756;BMP280;69239;50.678;12.280;2024-02-04T00:40:03;98055.00;;;8.50
79756;BMP280;69239;50.678;12.280;2024-02-04T00:42:29;98063.38;;;8.52
79756;BMP280;69239;50.678;12.280;2024-02-04T00:44:54;98061.56;;;8.52
79756;BMP280;69239;50.678;12.280;2024-02-04T00:47:20;98052.88;;;8.52
79756;BMP280;69239;50.678;12.280;2024-02-04T00:49:45;98051.84;;;8.53
79756;BMP280;69239;50.678;12.280;2024-02-04T00:52:10;98058.06;;;8.57
79756;BMP280;69239;50.678;12.280;2024-02-04T00:54:36;98049.22;;;8.53
79756;BMP280;69239;50.678;12.280;2024-02-04T00:57:01;98048.16;;;8.54
79756;BMP280;69239;50.678;12.280;2024-02-04T00:59:26;98048.16;;;8.54
79756;BMP280;69239;50.678;12.280;2024-02-04T01:01:52;98057.34;;;8.51
79756;BMP280;69239;50.678;12.280;2024-02-04T01:04:17;98053.69;;;8.52
79756;BMP280;69239;50.678;12.280;2024-02-04T01:06:43;98065.22;;;8.51
79756;BMP280;69239;50.678;12.280;2024-02-04T01:09:08;98057.63;;;8.50
79756;BMP280;69239;50.678;12.280;2024-02-04T01:11:34;98052.09;;;8.51
79756;BMP280;69239;50.678;12.280;2024-02-04T01:13:59;98058.66;;;8.54
79756;BMP280;69239;50.678;12.280;2024-02-04T01:16:24;98064.97;;;8.53
79756;BMP280;69239;50.678;12.280;2024-02-04T01:18:50;98071.25;;;8.52
79756;BMP280;69239;50.678;12.280;2024-02-04T01:21:15;98070.75;;;8.50
79756;BMP280;69239;50.678;12.280;2024-02-04T01:23:40;98056.06;;;8.49
79756;BMP280;69239;50.678;12.280;2024-02-04T01:26:06;98054.47;;;8.53
79756;BMP280;69239;50.678;12.280;2024-02-04T01:28:31;98048.44;;;8.52
79756;BMP280;69239;50.678;12.280;2024-02-04T01:30:56;98041.09;;;8.49
79756;BMP280;69239;50.678;12.280;2024-02-04T01:33:22;98039.53;;;8.48
79756;BMP280;69239;50.678;12.280;2024-02-04T01:35:47;98038.75;;;8.48
79756;BMP280;69239;50.678;12.280;2024-02-04T01:38:12;98037.69;;;8.49
79756;BMP280;69239;50.678;12.280;2024-02-04T01:40:38;98033.50;;;8.48
79756;BMP280;69239;50.678;12.280;2024-02-04T01:43:03;98039.81;;;8.47
79756;BMP280;69239;50.678;12.280;2024-02-04T01:45:28;98034.84;;;8.45
79756;BMP280;69239;50.678;12.280;2024-02-04T01:47:54;98026.72;;;8.47
79756;BMP280;69239;50.678;12.280;2024-02-04T01:50:20;98018.31;;;8.44
79756;BMP280;69239;50.678;12.280;2024-02-04T01:52:46;98017.78;;;8.48
79756;BMP280;69239;50.678;12.280;2024-02-04T01:55:12;98015.66;;;8.50
79756;BMP280;69239;50.678;12.280;2024-02-04T01:57:37;98014.09;;;8.49
79756;BMP280;69239;50.678;12.280;2024-02-04T02:00:03;98007.78;;;8.50
79756;BMP280;69239;50.678;12.280;2024-02-04T02:02:29;98008.28;;;8.52
79756;BMP280;69239;50.678;12.280;2024-02-04T02:04:56;98009.09;;;8.52
79756;BMP280;69239;50.678;12.280;2024-02-04T02:07:23;98001.75;;;8.49
79756;BMP280;69239;50.678;12.280;2024-02-04T02:09:52;98005.66;;;8.52
79756;BMP280;69239;50.678;12.280;2024-02-04T02:12:27;98012.97;;;8.55
79756;BMP280;69239;50.678;12.280;2024-02-04T02:15:00;98002.47;;;8.55
79756;BMP280;69239;50.678;12.280;2024-02-04T02:20:21;98007.44;;;8.56
79756;BMP280;69239;50.678;12.280;2024-02-04T02:22:50;97998.78;;;8.56
79756;BMP280;69239;50.678;12.280;2024-02-04T02:25:20;98007.44;;;8.56
79756;BMP280;69239;50.678;12.280;2024-02-04T02:27:49;98001.91;;;8.58
79756;BMP280;69239;50.678;12.280;2024-02-04T02:30:16;98009.78;;;8.58
79756;BMP280;69239;50.678;12.280;2024-02-04T02:32:43;98008.69;;;8.59
79756;BMP280;69239;50.678;12.280;2024-02-04T02:35:09;97994.03;;;8.58
79756;BMP280;69239;50.678;12.280;2024-02-04T02:37:47;97993.19;;;8.62
79756;BMP280;69239;50.678;12.280;2024-02-04T02:43:03;98007.31;;;8.66
79756;BMP280;69239;50.678;12.280;2024-02-04T02:45:29;97998.16;;;8.64
79756;BMP280;69239;50.678;12.280;2024-02-04T02:47:55;98005.47;;;8.67
79756;BMP280;69239;50.678;12.280;2024-02-04T02:50:21;98005.97;;;8.69
79756;BMP280;69239;50.678;12.280;2024-02-04T02:52:47;98004.69;;;8.66
79756;BMP280;69239;50.678;12.280;2024-02-04T02:55:14;98001.25;;;8.66
79756;BMP280;69239;50.678;12.280;2024-02-04T02:57:39;98007.03;;;8.68
79756;BMP280;69239;50.678;12.280;2024-02-04T03:00:05;98006.25;;;8.67
79756;BMP280;69239;50.678;12.280;2024-02-04T03:02:32;98011.44;;;8.72
79756;BMP280;69239;50.678;12.280;2024-02-04T03:04:57;98008.81;;;8.72
79756;BMP280;69239;50.678;12.280;2024-02-04T03:07:22;98006.47;;;8.71
79756;BMP280;69239;50.678;12.280;2024-02-04T03:09:48;98016.97;;;8.71
79756;BMP280;69239;50.678;12.280;2024-02-04T03:12:13;98023.22;;;8.75
79756;BMP280;69239;50.678;12.280;2024-02-04T03:14:39;98025.06;;;8.74
79756;BMP280;69239;50.678;12.280;2024-02-04T03:17:04;98018.53;;;8.72
79756;BMP280;69239;50.678;12.280;2024-02-04T03:19:29;98010.41;;;8.73
79756;BMP280;69239;50.678;12.280;2024-02-04T03:21:55;98016.13;;;8.75
79756;BMP280;69239;50.678;12.280;2024-02-04T03:24:20;98006.69;;;8.74
79756;BMP280;69239;50.678;12.280;2024-02-04T03:26:45;97998.59;;;8.71
79756;BMP280;69239;50.678;12.280;2024-02-04T03:29:11;98003.84;;;8.71
79756;BMP280;69239;50.678;12.280;2024-02-04T03:31:36;98001.94;;;8.77
79756;BMP280;69239;50.678;12.280;2024-02-04T03:34:01;98007.47;;;8.75
79756;BMP280;69239;50.678;12.280;2024-02-04T03:36:27;97999.91;;;8.73
79756;BMP280;69239;50.678;12.280;2024-02-04T03:38:52;98002.22;;;8.75
79756;BMP280;69239;50.678;12.280;2024-02-04T03:41:18;98001.63;;;8.78
79756;BMP280;69239;50.678;12.280;2024-02-04T03:43:43;97987.25;;;8.75
79756;BMP280;69239;50.678;12.280;2024-02-04T03:46:15;97985.88;;;8.78
79756;BMP280;69239;50.678;12.280;2024-02-04T03:48:41;97985.41;;;8.76
79756;BMP280;69239;50.678;12.280;2024-02-04T03:51:06;97987.44;;;8.79
79756;BMP280;69239;50.678;12.280;2024-02-04T03:53:32;97992.69;;;8.79
79756;BMP280;69239;50.678;12.280;2024-02-04T03:55:58;97982.19;;;8.79
79756;BMP280;69239;50.678;12.280;2024-02-04T03:58:23;97985.88;;;8.78
79756;BMP280;69239;50.678;12.280;2024-02-04T04:00:55;97997.41;;;8.82
79756;BMP280;69239;50.678;12.280;2024-02-04T04:03:21;97978.53;;;8.80
79756;BMP280;69239;50.678;12.280;2024-02-04T04:05:46;97977.19;;;8.83
79756;BMP280;69239;50.678;12.280;2024-02-04T04:08:11;97979.81;;;8.83
79756;BMP280;69239;50.678;12.280;2024-02-04T04:10:37;97983.22;;;8.83
79756;BMP280;69239;50.678;12.280;2024-02-04T04:13:03;97977.19;;;8.83
79756;BMP280;69239;50.678;12.280;2024-02-04T04:15:28;97981.84;;;8.86
79756;BMP280;69239;50.678;12.280;2024-02-04T04:17:53;97968.53;;;8.82
79756;BMP280;69239;50.678;12.280;2024-02-04T04:20:19;97971.16;;;8.82
79756;BMP280;69239;50.678;12.280;2024-02-04T04:22:44;97963.00;;;8.84
79756;BMP280;69239;50.678;12.280;2024-02-04T04:25:09;97954.34;;;8.83
79756;BMP280;69239;50.678;12.280;2024-02-04T04:27:35;97963.47;;;8.86
79756;BMP280;69239;50.678;12.280;2024-02-04T04:30:00;97971.66;;;8.84
79756;BMP280;69239;50.678;12.280;2024-02-04T04:32:25;97960.06;;;8.85
79756;BMP280;69239;50.678;12.280;2024-02-04T04:34:51;97947.94;;;8.89
79756;BMP280;69239;50.678;12.280;2024-02-04T04:37:16;97942.69;;;8.89
79756;BMP280;69239;50.678;12.280;2024-02-04T04:39:41;97934.31;;;8.87
79756;BMP280;69239;50.678;12.280;2024-02-04T04:42:07;97927.03;;;8.84
79756;BMP280;69239;50.678;12.280;2024-02-04T04:44:32;97934.81;;;8.89
79756;BMP280;69239;50.678;12.280;2024-02-04T04:46:57;97939.50;;;8.92
79756;BMP280;69239;50.678;12.280;2024-02-04T04:49:23;97935.31;;;8.91
79756;BMP280;69239;50.678;12.280;2024-02-04T04:51:48;97945.53;;;8.93
79756;BMP280;69239;50.678;12.280;2024-02-04T04:54:13;97941.84;;;8.94
79756;BMP280;69239;50.678;12.280;2024-02-04T04:56:39;97944.94;;;8.96
79756;BMP280;69239;50.678;12.280;2024-02-04T04:59:06;97955.66;;;8.99
79756;BMP280;69239;50.678;12.280;2024-02-04T05:01:32;97947.78;;;8.99
79756;BMP280;69239;50.678;12.280;2024-02-04T05:03:57;97939.41;;;8.97
79756;BMP280;69239;50.678;12.280;2024-02-04T05:06:22;97931.53;;;8.97
79756;BMP280;69239;50.678;12.280;2024-02-04T05:08:48;97940.91;;;9.03
79756;BMP280;69239;50.678;12.280;2024-02-04T05:11:13;97930.41;;;9.03
79756;BMP280;69239;50.678;12.280;2024-02-04T05:13:39;97926.50;;;9.01
79756;BMP280;69239;50.678;12.280;2024-02-04T05:16:05;97927.78;;;9.03
79756;BMP280;69239;50.678;12.280;2024-02-04T05:18:30;97929.31;;;9.04
79756;BMP280;69239;50.678;12.280;2024-02-04T05:20:55;97914.06;;;9.06
79756;BMP280;69239;50.678;12.280;2024-02-04T05:23:21;97912.19;;;9.07
79756;BMP280;69239;50.678;12.280;2024-02-04T05:25:47;97914.06;;;9.06
79756;BMP280;69239;50.678;12.280;2024-02-04T05:28:12;97919.81;;;9.09
79756;BMP280;69239;50.678;12.280;2024-02-04T05:30:38;97924.78;;;9.10
79756;BMP280;69239;50.678;12.280;2024-02-04T05:33:03;97912.72;;;9.09
79756;BMP280;69239;50.678;12.280;2024-02-04T05:35:28;97920.31;;;9.11
79756;BMP280;69239;50.678;12.280;2024-02-04T05:37:54;97911.44;;;9.06
79756;BMP280;69239;50.678;12.280;2024-02-04T05:40:19;97921.09;;;9.11
79756;BMP280;69239;50.678;12.280;2024-02-04T05:42:45;97918.75;;;9.10
79756;BMP280;69239;50.678;12.280;2024-02-04T05:45:11;97936.06;;;9.11
79756;BMP280;69239;50.678;12.280;2024-02-04T05:47:37;97925.84;;;9.09
79756;BMP280;69239;50.678;12.280;2024-02-04T05:50:02;97920.88;;;9.07
79756;BMP280;69239;50.678;12.280;2024-02-04T05:52:27;97906.16;;;9.06
79756;BMP280;69239;50.678;12.280;2024-02-04T05:54:53;97914.84;;;9.07
79756;BMP280;69239;50.678;12.280;2024-02-04T05:57:18;97914.06;;;9.06
79756;BMP280;69239;50.678;12.280;2024-02-04T05:59:45;97915.34;;;9.09
79756;BMP280;69239;50.678;12.280;2024-02-04T06:02:13;97919.31;;;9.06
79756;BMP280;69239;50.678;12.280;2024-02-04T06:04:38;97922.22;;;9.05
79756;BMP280;69239;50.678;12.280;2024-02-04T06:07:05;97923.00;;;9.05
79756;BMP280;69239;50.678;12.280;2024-02-04T06:09:32;97918.06;;;9.04
79756;BMP280;69239;50.678;12.280;2024-02-04T06:11:57;97908.78;;;9.06
79756;BMP280;69239;50.678;12.280;2024-02-04T06:14:23;97901.81;;;9.02
79756;BMP280;69239;50.678;12.280;2024-02-04T06:16:48;97908.78;;;9.06
79756;BMP280;69239;50.678;12.280;2024-02-04T06:19:13;97909.41;;;9.03
79756;BMP280;69239;50.678;12.280;2024-02-04T06:21:40;97902.59;;;9.02
79756;BMP280;69239;50.678;12.280;2024-02-04T06:24:06;97899.69;;;9.04
79756;BMP280;69239;50.678;12.280;2024-02-04T06:26:31;97890.69;;;9.05
79756;BMP280;69239;50.678;12.280;2024-02-04T06:28:57;97897.06;;;9.04
79756;BMP280;69239;50.678;12.280;2024-02-04T06:31:22;97911.44;;;9.06
79756;BMP280;69239;50.678;12.280;2024-02-04T06:33:48;97900.75;;;9.03
79756;BMP280;69239;50.678;12.280;2024-02-04T06:36:13;97895.19;;;9.04
79756;BMP280;69239;50.678;12.280;2024-02-04T06:38:38;97897.75;;;9.10
79756;BMP280;69239;50.678;12.280;2024-02-04T06:41:04;97882.00;;;9.10
79756;BMP280;69239;50.678;12.280;2024-02-04T06:43:29;97870.69;;;9.09
79756;BMP280;69239;50.678;12.280;2024-02-04T06:45:54;97867.84;;;9.05
79756;BMP280;69239;50.678;12.280;2024-02-04T06:48:20;97882.00;;;9.10
79756;BMP280;69239;50.678;12.280;2024-02-04T06:50:45;97871.34;;;9.01
79756;BMP280;69239;50.678;12.280;2024-02-04T06:53:13;97899.84;;;9.07
79756;BMP280;69239;50.678;12.280;2024-02-04T06:55:38;97913.22;;;9.11
79756;BMP280;69239;50.678;12.280;2024-02-04T06:58:03;97916.63;;;9.12
79756;BMP280;69239;50.678;12.280;2024-02-04T07:00:29;97911.06;;;9.13
79756;BMP280;69239;50.678;12.280;2024-02-04T07:02:55;97909.97;;;9.14
79756;BMP280;69239;50.678;12.280;2024-02-04T07:05:20;97907.66;;;9.13
79756;BMP280;69239;50.678;12.280;2024-02-04T07:07:47;97914.69;;;9.17
79756;BMP280;69239;50.678;12.280;2024-02-04T07:10:12;97907.59;;;9.18
79756;BMP280;69239;50.678;12.280;2024-02-04T07:12:38;97894.16;;;9.19
79756;BMP280;69239;50.678;12.280;2024-02-04T07:15:03;97887.06;;;9.20
79756;BMP280;69239;50.678;12.280;2024-02-04T07:17:29;97895.72;;;9.20
79756;BMP280;69239;50.678;12.280;2024-02-04T07:19:54;97893.09;;;9.20
79756;BMP280;69239;50.678;12.280;2024-02-04T07:22:19;97889.69;;;9.20
79756;BMP280;69239;50.678;12.280;2024-02-04T07:24:45;97877.34;;;9.20
79756;BMP280;69239;50.678;12.280;2024-02-04T07:27:10;97888.03;;;9.24
79756;BMP280;69239;50.678;12.280;2024-02-04T07:29:35;97886.47;;;9.23
79756;BMP280;69239;50.678;12.280;2024-02-04T07:32:01;97881.72;;;9.25
79756;BMP280;69239;50.678;12.280;2024-02-04T07:34:26;97882.88;;;9.19
79756;BMP280;69239;50.678;12.280;2024-02-04T07:36:52;97890.38;;;9.25
79756;BMP280;69239;50.678;12.280;2024-02-04T07:39:17;97898.97;;;9.31
79756;BMP280;69239;50.678;12.280;2024-02-04T07:41:43;97887.47;;;9.27
79756;BMP280;69239;50.678;12.280;2024-02-04T07:44:08;97894.78;;;9.30
79756;BMP280;69239;50.678;12.280;2024-02-04T07:46:34;97899.44;;;9.33
79756;BMP280;69239;50.678;12.280;2024-02-04T07:48:59;97890.31;;;9.30
79756;BMP280;69239;50.678;12.280;2024-02-04T07:51:24;97892.03;;;9.35
79756;BMP280;69239;50.678;12.280;2024-02-04T07:53:49;97910.16;;;9.36
79756;BMP280;69239;50.678;12.280;2024-02-04T07:56:15;97904.69;;;9.33
79756;BMP280;69239;50.678;12.280;2024-02-04T07:58:40;97899.91;;;9.35
79756;BMP280;69239;50.678;12.280;2024-02-04T08:01:05;97901.41;;;9.41
79756;BMP280;69239;50.678;12.280;2024-02-04T08:03:31;97890.97;;;9.36
79756;BMP280;69239;50.678;12.280;2024-02-04T08:05:56;97877.34;;;9.34
79756;BMP280;69239;50.678;12.280;2024-02-04T08:08:21;97879.91;;;9.39
79756;BMP280;69239;50.678;12.280;2024-02-04T08:10:47;97876.22;;;9.40
79756;BMP280;69239;50.678;12.280;2024-02-04T08:13:12;97870.94;;;9.40
79756;BMP280;69239;50.678;12.280;2024-02-04T08:15:37;97883.31;;;9.40
79756;BMP280;69239;50.678;12.280;2024-02-04T08:18:03;97892.94;;;9.44
79756;BMP280;69239;50.678;12.280;2024-02-04T08:20:28;97900.31;;;9.42
79756;BMP280;69239;50.678;12.280;2024-02-04T08:22:54;97900.84;;;9.44
79756;BMP280;69239;50.678;12.280;2024-02-04T08:25:19;97897.44;;;9.44
79756;BMP280;69239;50.678;12.280;2024-02-04T08:27:45;97891.09;;;9.45
79756;BMP280;69239;50.678;12.280;2024-02-04T08:30:10;97876.66;;;9.42
79756;BMP280;69239;50.678;12.280;2024-02-04T08:32:37;97880.84;;;9.43
79756;BMP280;69239;50.678;12.280;2024-02-04T08:35:03;97890.03;;;9.46
79756;BMP280;69239;50.678;12.280;2024-02-04T08:37:28;97885.16;;;9.53
79756;BMP280;69239;50.678;12.280;2024-02-04T08:39:53;97878.53;;;9.55
79756;BMP280;69239;50.678;12.280;2024-02-04T08:42:19;97878.75;;;9.59
79756;BMP280;69239;50.678;12.280;2024-02-04T08:44:44;97897.03;;;9.64
79756;BMP280;69239;50.678;12.280;2024-02-04T08:47:09;97888.88;;;9.65
79756;BMP280;69239;50.678;12.280;2024-02-04T08:49:37;97891.69;;;9.69
79756;BMP280;69239;50.678;12.280;2024-02-04T08:52:02;97878.75;;;9.73
79756;BMP280;69239;50.678;12.280;2024-02-04T08:54:28;97873.50;;;9.73
79756;BMP280;69239;50.678;12.280;2024-02-04T08:56:53;97868.88;;;9.78
79756;BMP280;69239;50.678;12.280;2024-02-04T08:59:18;97861.81;;;9.79
79756;BMP280;69239;50.678;12.280;2024-02-04T09:01:44;97870.66;;;9.83
79756;BMP280;69239;50.678;12.280;2024-02-04T09:04:09;97882.25;;;9.82
79756;BMP280;69239;50.678;12.280;2024-02-04T09:06:34;97896.19;;;9.82
79756;BMP280;69239;50.678;12.280;2024-02-04T09:09:00;97880.50;;;9.77
79756;BMP280;69239;50.678;12.280;2024-02-04T09:11:25;97866.25;;;9.78
79756;BMP280;69239;50.678;12.280;2024-02-04T09:13:51;97861.31;;;9.77
79756;BMP280;69239;50.678;12.280;2024-02-04T09:16:16;97859.84;;;9.71
79756;BMP280;69239;50.678;12.280;2024-02-04T09:18:41;97871.94;;;9.72
79756;BMP280;69239;50.678;12.280;2024-02-04T09:21:07;97867.25;;;9.68
79756;BMP280;69239;50.678;12.280;2024-02-04T09:23:32;97859.69;;;9.67
79756;BMP280;69239;50.678;12.280;2024-02-04T09:25:57;97854.41;;;9.67
79756;BMP280;69239;50.678;12.280;2024-02-04T09:28:23;97875.13;;;9.68
79756;BMP280;69239;50.678;12.280;2024-02-04T09:30:48;97877.59;;;9.65
79756;BMP280;69239;50.678;12.280;2024-02-04T09:33:14;97874.19;;;9.64
79756;BMP280;69239;50.678;12.280;2024-02-04T09:35:39;97869.41;;;9.66
79756;BMP280;69239;50.678;12.280;2024-02-04T09:38:05;97876.22;;;9.67
79756;BMP280;69239;50.678;12.280;2024-02-04T09:40:31;97868.34;;;9.67
79756;BMP280;69239;50.678;12.280;2024-02-04T09:42:58;97863.53;;;9.69
79756;BMP280;69239;50.678;12.280;2024-02-04T09:45:23;97851.88;;;9.62
79756;BMP280;69239;50.678;12.280;2024-02-04T09:47:50;97868.25;;;9.73
79756;BMP280;69239;50.678;12.280;2024-02-04T09:50:16;97874.47;;;9.77
79756;BMP280;69239;50.678;12.280;2024-02-04T09:52:43;97858.69;;;9.77
79756;BMP280;69239;50.678;12.280;2024-02-04T09:55:12;97851.28;;;9.79
79756;BMP280;69239;50.678;12.280;2024-02-04T09:57:39;97860.63;;;9.85
79756;BMP280;69239;50.678;12.280;2024-02-04T10:00:05;97862.66;;;9.88
79756;BMP280;69239;50.678;12.280;2024-02-04T10:02:32;97848.75;;;9.87
79756;BMP280;69239;50.678;12.280;2024-02-04T10:04:57;97850.31;;;9.88
79756;BMP280;69239;50.678;12.280;2024-02-04T10:07:23;97843.38;;;9.92
79756;BMP280;69239;50.678;12.280;2024-02-04T10:09:50;97839.47;;;9.90
79756;BMP280;69239;50.678;12.280;2024-02-04T10:12:15;97830.81;;;9.89
79756;BMP280;69239;50.678;12.280;2024-02-04T10:14:41;97843.78;;;9.99
79756;BMP280;69239;50.678;12.280;2024-02-04T10:17:07;97841.16;;;9.99
79756;BMP280;69239;50.678;12.280;2024-02-04T10:19:32;97837.16;;;10.02
79756;BMP280;69239;50.678;12.280;2024-02-04T10:22:02;97837.22;;;10.11
79756;BMP280;69239;50.678;12.280;2024-02-04T10:24:28;97828.44;;;10.15
79756;BMP280;69239;50.678;12.280;2024-02-04T10:26:55;97827.53;;;10.20
79756;BMP280;69239;50.678;12.280;2024-02-04T10:29:22;97816.13;;;10.24
79756;BMP280;69239;50.678;12.280;2024-02-04T10:31:47;97804.88;;;10.32
79756;BMP280;69239;50.678;12.280;2024-02-04T10:34:12;97802.50;;;10.45
79756;BMP280;69239;50.678;12.280;2024-02-04T10:36:37;97785.81;;;10.49
79756;BMP280;69239;50.678;12.280;2024-02-04T10:39:04;97784.19;;;10.62
79756;BMP280;69239;50.678;12.280;2024-02-04T10:41:31;97779.41;;;10.64
79756;BMP280;69239;50.678;12.280;2024-02-04T10:43:58;97786.13;;;10.70
79756;BMP280;69239;50.678;12.280;2024-02-04T10:46:29;97777.09;;;10.71
79756;BMP280;69239;50.678;12.280;2024-02-04T10:48:55;97782.84;;;10.73
79756;BMP280;69239;50.678;12.280;2024-02-04T10:51:24;97779.13;;;10.74
79756;BMP280;69239;50.678;12.280;2024-02-04T10:53:51;97754.53;;;10.70
79756;BMP280;69239;50.678;12.280;2024-02-04T10:56:22;97758.53;;;10.76
79756;BMP280;69239;50.678;12.280;2024-02-04T10:58:50;97765.06;;;10.79
79756;BMP280;69239;50.678;12.280;2024-02-04T11:01:17;97757.63;;;10.81
79756;BMP280;69239;50.678;12.280;2024-02-04T11:03:45;97753.44;;;10.80
79756;BMP280;69239;50.678;12.280;2024-02-04T11:06:11;97751.47;;;10.85
79756;BMP280;69239;50.678;12.280;2024-02-04T11:08:38;97740.94;;;10.85
79756;BMP280;69239;50.678;12.280;2024-02-04T11:11:04;97745.00;;;10.91
79756;BMP280;69239;50.678;12.280;2024-02-04T11:13:29;97737.56;;;10.93
79756;BMP280;69239;50.678;12.280;2024-02-04T11:15:57;97741.41;;;10.96
79756;BMP280;69239;50.678;12.280;2024-02-04T11:21:23;97754.28;;;10.98
79756;BMP280;69239;50.678;12.280;2024-02-04T11:24:02;97749.19;;;10.92
79756;BMP280;69239;50.678;12.280;2024-02-04T11:26:33;97739.09;;;10.86
79756;BMP280;69239;50.678;12.280;2024-02-04T11:29:00;97738.00;;;10.87
79756;BMP280;69239;50.678;12.280;2024-02-04T11:31:28;97743.09;;;10.83
79756;BMP280;69239;50.678;12.280;2024-02-04T11:33:54;97734.84;;;10.76
79756;BMP280;69239;50.678;12.280;2024-02-04T11:36:24;97740.41;;;10.75
79756;BMP280;69239;50.678;12.280;2024-02-04T11:38:49;97740.09;;;10.76
79756;BMP280;69239;50.678;12.280;2024-02-04T11:41:25;97736.69;;;10.76
79756;BMP280;69239;50.678;12.280;2024-02-04T11:43:53;97739.63;;;10.74
79756;BMP280;69239;50.678;12.280;2024-02-04T11:46:30;97744.44;;;10.72
79756;BMP280;69239;50.678;12.280;2024-02-04T11:48:58;97754.19;;;10.72
79756;BMP280;69239;50.678;12.280;2024-02-04T11:51:23;97749.69;;;10.72
79756;BMP280;69239;50.678;12.280;2024-02-04T11:53:50;97740.38;;;10.66
79756;BMP280;69239;50.678;12.280;2024-02-04T11:56:17;97746.13;;;10.68
79756;BMP280;69239;50.678;12.280;2024-02-04T11:58:43;97745.03;;;10.69
79756;BMP280;69239;50.678;12.280;2024-02-04T12:01:12;97740.06;;;10.68
79756;BMP280;69239;50.678;12.280;2024-02-04T12:03:37;97746.41;;;10.67
79756;BMP280;69239;50.678;12.280;2024-02-04T12:06:03;97731.34;;;10.58
79756;BMP280;69239;50.678;12.280;2024-02-04T12:08:32;97741.28;;;10.61
79756;BMP280;69239;50.678;12.280;2024-02-04T12:10:58;97726.88;;;10.59
79756;BMP280;69239;50.678;12.280;2024-02-04T12:13:24;97744.81;;;10.57
79756;BMP280;69239;50.678;12.280;2024-02-04T12:15:49;97731.16;;;10.55
79756;BMP280;69239;50.678;12.280;2024-02-04T12:18:15;97724.97;;;10.51
79756;BMP280;69239;50.678;12.280;2024-02-04T12:20:46;97723.41;;;10.50
79756;BMP280;69239;50.678;12.280;2024-02-04T12:23:13;97725.53;;;10.48
79756;BMP280;69239;50.678;12.280;2024-02-04T12:25:39;97712.53;;;10.43
79756;BMP280;69239;50.678;12.280;2024-02-04T12:28:04;97709.84;;;10.34
79756;BMP280;69239;50.678;12.280;2024-02-04T12:30:32;97708.50;;;10.37
79756;BMP280;69239;50.678;12.280;2024-02-04T12:32:58;97703.81;;;10.34
79756;BMP280;69239;50.678;12.280;2024-02-04T12:35:26;97699.03;;;10.36
79756;BMP280;69239;50.678;12.280;2024-02-04T12:37:54;97707.72;;;10.36
79756;BMP280;69239;50.678;12.280;2024-02-04T12:45:18;97694.81;;;10.35
79756;BMP280;69239;50.678;12.280;2024-02-04T12:47:43;97694.06;;;10.34
79756;BMP280;69239;50.678;12.280;2024-02-04T12:50:10;97690.50;;;10.39
79756;BMP280;69239;50.678;12.280;2024-02-04T12:52:37;97693.28;;;10.34
79756;BMP280;69239;50.678;12.280;2024-02-04T12:55:04;97683.53;;;10.34
79756;BMP280;69239;50.678;12.280;2024-02-04T12:57:30;97684.13;;;10.31
79756;BMP280;69239;50.678;12.280;2024-02-04T13:00:05;97686.13;;;10.25
79756;BMP280;69239;50.678;12.280;2024-02-04T13:02:31;97673.09;;;10.20
79756;BMP280;69239;50.678;12.280;2024-02-04T13:04:59;97693.72;;;10.27
79756;BMP280;69239;50.678;12.280;2024-02-04T13:07:24;97692.44;;;10.24
79756;BMP280;69239;50.678;12.280;2024-02-04T13:09:58;97698.00;;;10.23
79756;BMP280;69239;50.678;12.280;2024-02-04T13:12:25;97685.59;;;10.15
79756;BMP280;69239;50.678;12.280;2024-02-04T13:14:50;97693.75;;;10.13
79756;BMP280;69239;50.678;12.280;2024-02-04T13:17:15;97699.00;;;10.13
79756;BMP280;69239;50.678;12.280;2024-02-04T13:19:41;97693.59;;;10.10
79756;BMP280;69239;50.678;12.280;2024-02-04T13:22:06;97695.78;;;10.08
79756;BMP280;69239;50.678;12.280;2024-02-04T13:24:32;97709.19;;;10.06
79756;BMP280;69239;50.678;12.280;2024-02-04T13:26:58;97702.38;;;10.05
79756;BMP280;69239;50.678;12.280;2024-02-04T13:29:26;97694.34;;;10.02
79756;BMP280;69239;50.678;12.280;2024-02-04T13:31:51;97675.53;;;9.86
79756;BMP280;69239;50.678;12.280;2024-02-04T13:34:16;97687.94;;;9.94
79756;BMP280;69239;50.678;12.280;2024-02-04T13:36:43;97687.31;;;9.97
79756;BMP280;69239;50.678;12.280;2024-02-04T13:39:09;97699.25;;;9.94
79756;BMP280;69239;50.678;12.280;2024-02-04T13:41:34;97697.25;;;10.00
79756;BMP280;69239;50.678;12.280;2024-02-04T13:44:01;97702.03;;;9.98
79756;BMP280;69239;50.678;12.280;2024-02-04T13:46:26;97691.50;;;9.98
79756;BMP280;69239;50.678;12.280;2024-02-04T13:48:52;97673.25;;;9.93
79756;BMP280;69239;50.678;12.280;2024-02-04T13:51:17;97687.66;;;10.04
79756;BMP280;69239;50.678;12.280;2024-02-04T13:53:43;97684.47;;;10.07
79756;BMP280;69239;50.678;12.280;2024-02-04T13:56:08;97679.22;;;10.07
79756;BMP280;69239;50.678;12.280;2024-02-04T13:58:33;97687.72;;;10.13
79756;BMP280;69239;50.678;12.280;2024-02-04T14:00:58;97672.72;;;10.13
79756;BMP280;69239;50.678;12.280;2024-02-04T14:03:25;97685.28;;;10.16
79756;BMP280;69239;50.678;12.280;2024-02-04T14:05:50;97682.06;;;10.19
79756;BMP280;69239;50.678;12.280;2024-02-04T14:08:16;97663.78;;;10.14
79756;BMP280;69239;50.678;12.280;2024-02-04T14:10:41;97683.00;;;10.23
79756;BMP280;69239;50.678;12.280;2024-02-04T14:13:06;97677.13;;;10.26